Time;durP1;ratioP1;P1;durP2;ratioP2;P2;SDS_P1;SDS_P2;PMS_P1;PMS_P2;Temp;Humidity;BMP_temperature;BMP_pressure;BME280_temperature;BME280_humidity;BME280_pressure;Samples;Min_cycle;Max_cycle;Signal;HPM_P1;HPM_P2
2022/03/27 00:01:19;;;;;;;25.30;10.93;;;5.50;99.90;;;;;;10420245;28;20033;-81
2022/03/27 00:06:20;;;;;;;18.40;8.97;;;5.30;99.90;;;;;;10433268;28;20031;-82
2022/03/27 00:11:23;;;;;;;20.00;8.17;;;5.10;99.90;;;;;;10423889;28;20409;-82
2022/03/27 00:16:24;;;;;;;23.57;10.10;;;4.90;99.90;;;;;;10441584;28;20033;-85
2022/03/27 00:21:25;;;;;;;23.17;8.53;;;4.60;99.90;;;;;;10455514;28;20496;-82
2022/03/27 00:26:26;;;;;;;16.93;7.77;;;4.20;99.90;;;;;;10444379;28;20508;-82
2022/03/27 00:31:28;;;;;;;17.47;7.30;;;3.90;99.90;;;;;;10437277;28;20045;-81
2022/03/27 00:36:29;;;;;;;16.77;6.37;;;3.70;99.90;;;;;;10443603;28;20095;-85
2022/03/27 00:41:30;;;;;;;19.77;7.90;;;3.40;99.90;;;;;;10413290;28;20088;-81
2022/03/27 00:46:31;;;;;;;19.73;7.30;;;3.20;99.90;;;;;;10438170;28;20511;-87
2022/03/27 00:51:32;;;;;;;17.27;7.03;;;3.00;99.90;;;;;;10452498;28;20095;-82
2022/03/27 00:56:32;;;;;;;18.13;8.07;;;2.80;99.90;;;;;;10453889;28;20075;-85
2022/03/27 01:01:38;;;;;;;18.00;6.77;;;2.80;99.90;;;;;;10430872;28;20040;-81
2022/03/27 01:06:43;;;;;;;15.25;6.43;;;2.70;99.90;;;;;;10453654;28;20489;-83
2022/03/27 01:11:44;;;;;;;16.50;6.40;;;2.60;99.90;;;;;;10432441;28;20045;-82
2022/03/27 01:16:55;;;;;;;11.53;4.67;;;2.50;99.90;;;;;;10434873;28;20041;-81
2022/03/27 01:21:57;;;;;;;11.73;5.20;;;2.20;99.90;;;;;;10412124;28;20544;-82
2022/03/27 01:26:58;;;;;;;13.30;4.23;;;1.90;99.90;;;;;;10421765;28;20068;-80
2022/03/27 01:31:59;;;;;;;7.73;3.43;;;1.70;99.90;;;;;;10444429;28;20124;-85
2022/03/27 01:37:18;;;;;;;8.63;3.60;;;1.40;99.90;;;;;;10411576;28;20120;-82
2022/03/27 01:42:18;;;;;;;8.67;3.63;;;1.20;99.90;;;;;;10411347;28;20473;-83
2022/03/27 01:47:19;;;;;;;8.07;3.63;;;1.10;99.90;;;;;;10439107;28;20033;-85
2022/03/27 01:52:20;;;;;;;11.03;4.03;;;0.90;99.90;;;;;;10451647;28;20040;-84
2022/03/27 01:57:20;;;;;;;10.30;3.50;;;1.00;99.90;;;;;;10418093;28;20119;-81
2022/03/27 02:02:23;;;;;;;10.30;3.60;;;1.10;99.90;;;;;;10439813;28;20468;-81
2022/03/27 02:07:25;;;;;;;8.30;3.23;;;1.00;99.90;;;;;;10446379;28;20033;-84
2022/03/27 02:12:26;;;;;;;8.70;4.30;;;0.90;99.90;;;;;;10409811;28;20435;-87
2022/03/27 02:17:27;;;;;;;13.80;3.23;;;0.60;99.90;;;;;;10438270;28;20032;-82
2022/03/27 02:22:27;;;;;;;9.97;2.97;;;0.50;99.90;;;;;;10450627;28;20066;-82
2022/03/27 02:27:28;;;;;;;12.10;3.33;;;0.40;99.90;;;;;;10444316;28;20469;-85
2022/03/27 02:32:29;;;;;;;12.60;3.20;;;0.30;99.90;;;;;;10436038;28;20428;-84
2022/03/27 02:37:29;;;;;;;13.70;3.47;;;0.10;99.90;;;;;;10426419;28;20060;-82
2022/03/27 02:42:30;;;;;;;10.20;3.27;;;-0.10;99.90;;;;;;10432135;28;20022;-82
2022/03/27 02:47:31;;;;;;;10.73;3.63;;;-0.20;99.90;;;;;;10433305;28;20037;-83
2022/03/27 02:52:33;;;;;;;12.43;3.53;;;-0.30;99.90;;;;;;10409479;28;20120;-82
2022/03/27 02:57:33;;;;;;;14.10;4.27;;;-0.30;99.90;;;;;;10407208;28;20076;-82
2022/03/27 03:02:35;;;;;;;16.13;3.77;;;-0.30;99.90;;;;;;10412394;28;20110;-82
2022/03/27 03:07:41;;;;;;;13.33;4.00;;;-0.40;99.90;;;;;;10416320;28;20416;-88
2022/03/27 03:12:42;;;;;;;8.43;4.13;;;-0.50;99.90;;;;;;10421819;28;20171;-85
2022/03/27 03:17:42;;;;;;;13.23;5.80;;;-0.60;99.90;;;;;;10456205;28;20045;-86
2022/03/27 03:22:43;;;;;;;12.30;4.00;;;-0.60;99.90;;;;;;10444561;28;20144;-83
2022/03/27 03:27:44;;;;;;;7.57;3.50;;;-0.70;99.90;;;;;;10415930;28;20033;-84
2022/03/27 03:32:45;;;;;;;12.70;4.10;;;-0.70;99.90;;;;;;10415707;28;20053;-83
2022/03/27 03:37:46;;;;;;;14.87;4.23;;;-0.70;99.90;;;;;;10430288;28;20533;-84
2022/03/27 03:42:47;;;;;;;11.47;4.13;;;-0.70;99.90;;;;;;10436026;28;20137;-84
2022/03/27 03:47:47;;;;;;;10.13;3.53;;;-0.70;99.90;;;;;;10441985;28;20037;-83
2022/03/27 03:52:48;;;;;;;12.53;4.97;;;-0.70;99.90;;;;;;10449960;28;20119;-85
2022/03/27 03:57:49;;;;;;;11.70;4.80;;;-0.70;99.90;;;;;;10447970;28;20025;-86
2022/03/27 04:02:49;;;;;;;12.03;4.50;;;-0.70;99.90;;;;;;10416579;28;20033;-85
2022/03/27 04:07:50;;;;;;;13.97;5.13;;;-0.80;99.90;;;;;;10441589;28;20063;-86
2022/03/27 04:12:51;;;;;;;16.13;6.50;;;-0.80;99.90;;;;;;10454890;28;20025;-81
2022/03/27 04:17:51;;;;;;;17.00;4.27;;;-0.80;99.90;;;;;;10444976;28;20087;-82
2022/03/27 04:22:52;;;;;;;12.83;4.37;;;-0.80;99.90;;;;;;10446166;28;20073;-85
2022/03/27 04:27:53;;;;;;;13.07;4.93;;;-0.70;99.90;;;;;;10416151;28;20856;-80
2022/03/27 04:32:54;;;;;;;10.73;3.80;;;-0.80;99.90;;;;;;10427820;28;20064;-81
2022/03/27 04:37:54;;;;;;;15.90;4.57;;;-0.80;99.90;;;;;;10455307;28;20028;-84
2022/03/27 04:42:55;;;;;;;14.80;5.87;;;-0.80;99.90;;;;;;10454412;28;20068;-81
2022/03/27 04:47:55;;;;;;;14.90;5.30;;;-0.80;99.90;;;;;;10430043;28;20091;-79
2022/03/27 04:52:56;;;;;;;14.23;5.37;;;-0.80;99.90;;;;;;10413790;28;20038;-79
2022/03/27 04:57:57;;;;;;;14.27;5.87;;;-0.90;99.90;;;;;;10411801;28;20025;-80
2022/03/27 05:02:57;;;;;;;16.20;6.10;;;-0.80;99.90;;;;;;10419759;28;20032;-79
2022/03/27 05:07:58;;;;;;;14.67;5.00;;;-0.90;99.90;;;;;;10437369;28;20045;-79
2022/03/27 05:12:59;;;;;;;16.73;4.70;;;-0.80;99.90;;;;;;10412431;28;20026;-84
2022/03/27 05:18:00;;;;;;;14.77;5.90;;;-0.80;99.90;;;;;;10412406;28;20028;-81
2022/03/27 05:23:01;;;;;;;17.20;5.87;;;-0.60;99.90;;;;;;10434886;28;20087;-80
2022/03/27 05:28:02;;;;;;;16.90;6.53;;;-0.50;99.90;;;;;;10443769;28;20512;-79
2022/03/27 05:33:06;;;;;;;32.13;10.80;;;-0.30;99.90;;;;;;10452432;28;20029;-84
2022/03/27 05:38:06;;;;;;;52.27;17.93;;;-0.10;99.90;;;;;;10450948;28;20580;-80
2022/03/27 05:43:07;;;;;;;40.83;13.43;;;-0.10;99.90;;;;;;10451696;28;20023;-80
2022/03/27 05:48:08;;;;;;;25.30;8.47;;;0.10;99.90;;;;;;10451779;28;20134;-79
2022/03/27 05:53:09;;;;;;;14.80;5.53;;;0.30;99.90;;;;;;10451955;28;20036;-79
2022/03/27 05:58:10;;;;;;;11.73;4.77;;;0.60;99.90;;;;;;10448674;28;20103;-80
2022/03/27 06:03:10;;;;;;;11.87;5.03;;;0.80;99.90;;;;;;10431816;28;20030;-80
2022/03/27 06:08:11;;;;;;;14.73;5.03;;;1.00;99.90;;;;;;10410701;28;20030;-80
2022/03/27 06:13:11;;;;;;;15.67;5.17;;;1.30;99.90;;;;;;10409883;28;20047;-84
2022/03/27 06:18:12;;;;;;;15.27;4.93;;;1.50;99.90;;;;;;10418412;28;20086;-79
2022/03/27 06:23:13;;;;;;;11.07;4.20;;;1.70;99.90;;;;;;10448984;28;20065;-79
2022/03/27 06:28:14;;;;;;;11.17;4.10;;;2.00;99.90;;;;;;10444792;28;20087;-81
2022/03/27 06:33:15;;;;;;;13.63;4.43;;;2.20;99.90;;;;;;10432007;28;20032;-81
2022/03/27 06:38:17;;;;;;;10.80;4.33;;;2.40;99.90;;;;;;10447158;28;20021;-82
2022/03/27 06:43:18;;;;;;;15.23;6.57;;;2.60;99.90;;;;;;10441897;28;20025;-88
2022/03/27 06:48:19;;;;;;;12.17;4.43;;;2.80;99.90;;;;;;10441461;28;20427;-85
2022/03/27 06:53:24;;;;;;;13.50;5.23;;;2.90;99.90;;;;;;10445158;28;20376;-86
2022/03/27 06:58:24;;;;;;;16.07;5.87;;;3.10;99.90;;;;;;10438553;28;20056;-81
2022/03/27 07:03:25;;;;;;;13.63;6.00;;;3.30;99.90;;;;;;10437459;28;20088;-84
2022/03/27 07:08:27;;;;;;;28.73;8.20;;;3.50;99.90;;;;;;10443945;28;20420;-84
2022/03/27 07:13:27;;;;;;;58.97;16.83;;;3.70;99.90;;;;;;10442736;28;20408;-82
2022/03/27 07:18:29;;;;;;;22.93;7.10;;;3.90;99.90;;;;;;10442444;28;20036;-83
2022/03/27 07:23:29;;;;;;;25.67;8.63;;;4.20;99.90;;;;;;10433833;28;20049;-82
2022/03/27 07:28:31;;;;;;;26.23;9.63;;;4.50;99.90;;;;;;10432148;28;20057;-84
2022/03/27 07:33:33;;;;;;;37.90;13.33;;;4.70;99.90;;;;;;10439035;28;20029;-82
2022/03/27 07:38:34;;;;;;;16.60;6.40;;;5.00;99.90;;;;;;10436611;28;20064;-83
2022/03/27 07:43:34;;;;;;;18.67;6.83;;;5.40;99.90;;;;;;10420406;28;20057;-81
2022/03/27 07:48:35;;;;;;;18.67;5.57;;;5.70;99.90;;;;;;10434988;28;20526;-83
2022/03/27 07:53:36;;;;;;;17.43;5.77;;;5.90;99.90;;;;;;10433502;28;20061;-81
2022/03/27 07:58:36;;;;;;;43.27;20.67;;;6.10;99.90;;;;;;10433605;28;20438;-81
2022/03/27 08:03:38;;;;;;;12.27;4.87;;;6.30;99.90;;;;;;10449833;28;20037;-84
2022/03/27 08:08:39;;;;;;;11.53;4.80;;;6.40;99.90;;;;;;10436413;28;20021;-84
2022/03/27 08:13:39;;;;;;;15.87;5.17;;;6.50;99.90;;;;;;10422813;28;20037;-82
2022/03/27 08:18:40;;;;;;;11.97;4.80;;;6.80;99.90;;;;;;10441395;28;20458;-81
2022/03/27 08:23:41;;;;;;;15.57;5.37;;;7.20;99.90;;;;;;10452847;28;20045;-82
2022/03/27 08:28:43;;;;;;;37.73;13.87;;;7.60;99.90;;;;;;10429121;28;20049;-88
2022/03/27 08:33:46;;;;;;;4.20;2.00;;;7.80;99.90;;;;;;10441612;28;20040;-83
2022/03/27 08:38:47;;;;;;;5.00;2.20;;;8.00;99.90;;;;;;10421185;28;20374;-79
2022/03/27 08:43:58;;;;;;;4.83;1.33;;;7.60;99.90;;;;;;10441614;28;20034;-82
2022/03/27 08:49:01;;;;;;;3.57;2.00;;;7.40;99.90;;;;;;10444235;28;20068;-85
2022/03/27 08:54:08;;;;;;;9.47;2.30;;;7.40;99.90;;;;;;10424302;28;20060;-82
2022/03/27 08:59:10;;;;;;;6.23;1.93;;;7.70;99.90;;;;;;10434667;28;20100;-85
2022/03/27 09:04:13;;;;;;;4.73;1.67;;;8.10;99.90;;;;;;10440896;28;20029;-84
2022/03/27 09:09:14;;;;;;;3.47;1.60;;;8.00;99.90;;;;;;10439239;28;20068;-83
2022/03/27 09:14:16;;;;;;;4.70;1.83;;;8.10;99.90;;;;;;10417305;28;20057;-81
2022/03/27 09:19:32;;;;;;;6.10;3.47;;;8.40;99.90;;;;;;10447951;28;20021;-83
2022/03/27 09:24:38;;;;;;;7.13;2.63;;;8.90;99.90;;;;;;10453137;28;20136;-83
2022/03/27 09:30:00;;;;;;;11.77;3.83;;;9.40;99.90;;;;;;10425787;28;20535;-83
2022/03/27 09:35:08;;;;;;;10.27;3.17;;;9.50;99.90;;;;;;10442600;28;20040;-84
2022/03/27 09:40:12;;;;;;;7.53;2.37;;;9.90;99.90;;;;;;10436466;28;20056;-81
2022/03/27 09:45:13;;;;;;;5.67;2.37;;;10.20;99.90;;;;;;10435965;28;20068;-83
2022/03/27 09:50:37;;;;;;;3.40;1.50;;;10.00;99.90;;;;;;10434961;28;20539;-87
2022/03/27 09:55:38;;;;;;;3.60;1.75;;;10.10;99.90;;;;;;10450218;28;20041;-84
2022/03/27 10:00:39;;;;;;;7.13;2.75;;;10.40;99.90;;;;;;10416717;28;20018;-85
2022/03/27 10:05:39;;;;;;;3.78;1.88;;;10.60;99.90;;;;;;10438548;28;20025;-83
2022/03/27 10:10:40;;;;;;;5.00;1.75;;;10.90;99.90;;;;;;10409218;28;20030;-81
2022/03/27 10:15:43;;;;;;;3.92;1.42;;;11.10;99.90;;;;;;10437598;28;20500;-83
2022/03/27 10:20:46;;;;;;;13.77;4.85;;;10.70;99.90;;;;;;10409569;28;20056;-84
2022/03/27 10:25:56;;;;;;;3.08;1.30;;;10.80;99.90;;;;;;10418669;28;20041;-83
2022/03/27 10:30:57;;;;;;;3.85;1.30;;;10.90;99.90;;;;;;10415034;28;20441;-84
2022/03/27 10:36:12;;;;;;;3.88;1.25;;;11.10;99.90;;;;;;10426788;28;20061;-85
2022/03/27 10:41:35;;;;;;;2.75;1.42;;;10.70;99.90;;;;;;10417475;28;20040;-89
2022/03/27 10:46:35;;;;;;;4.28;1.30;;;10.30;99.90;;;;;;10440265;28;20017;-86
2022/03/27 10:51:39;;;;;;;2.88;1.27;;;10.10;99.90;;;;;;10448858;28;20029;-85
2022/03/27 10:56:40;;;;;;;87.45;24.92;;;10.40;99.90;;;;;;10434501;28;20029;-84
2022/03/27 11:01:58;;;;;;;5.65;1.90;;;11.10;99.90;;;;;;10438402;28;20051;-84
2022/03/27 11:07:21;;;;;;;4.18;1.85;;;11.50;99.90;;;;;;10441388;28;20029;-82
2022/03/27 11:12:24;;;;;;;3.35;1.67;;;11.00;99.90;;;;;;10426813;28;20413;-83
2022/03/27 11:17:46;;;;;;;2.30;1.50;;;10.60;99.90;;;;;;10430200;28;20620;-83
2022/03/27 11:22:51;;;;;;;3.15;1.60;;;10.60;99.90;;;;;;10425647;28;20596;-85
2022/03/27 11:28:14;;;;;;;4.25;1.60;;;10.50;99.90;;;;;;10449346;28;20112;-83
2022/03/27 11:33:31;;;;;;;4.05;1.70;;;10.60;99.90;;;;;;10430627;28;20041;-83
2022/03/27 11:38:54;;;;;;;5.72;1.70;;;10.80;99.90;;;;;;10421301;28;20108;-86
2022/03/27 11:44:16;;;;;;;3.03;1.38;;;10.90;99.40;;;;;;10433808;28;20116;-84
2022/03/27 11:49:17;;;;;;;14.02;4.03;;;11.20;99.90;;;;;;10428775;28;20488;-84
2022/03/27 11:54:19;;;;;;;5.60;1.75;;;12.10;98.20;;;;;;10427500;28;20370;-81
2022/03/27 11:59:20;;;;;;;3.20;1.20;;;12.10;82.40;;;;;;10435324;28;20044;-87
2022/03/27 12:04:21;;;;;;;4.65;1.60;;;12.20;85.50;;;;;;10438254;28;20032;-87
2022/03/27 12:09:24;;;;;;;5.18;2.60;;;12.70;82.20;;;;;;10448833;28;20072;-85
2022/03/27 12:14:25;;;;;;;5.65;1.88;;;12.90;75.90;;;;;;10449168;28;20053;-83
2022/03/27 12:19:25;;;;;;;4.43;1.75;;;13.00;66.70;;;;;;10433221;28;20507;-86
2022/03/27 12:24:41;;;;;;;20.60;9.57;;;13.00;75.10;;;;;;10423088;28;20115;-83
2022/03/27 12:29:51;;;;;;;5.13;2.55;;;13.30;65.40;;;;;;10413337;28;20437;-90
2022/03/27 12:34:55;;;;;;;5.47;1.88;;;13.30;66.70;;;;;;10439429;28;20108;-82
2022/03/27 12:39:56;;;;;;;4.20;1.58;;;13.30;65.10;;;;;;10429919;28;20463;-83
2022/03/27 12:45:07;;;;;;;3.00;1.50;;;13.00;58.20;;;;;;10421511;28;20025;-84
2022/03/27 12:50:11;;;;;;;2.90;1.23;;;12.80;54.40;;;;;;10423025;28;20116;-83
2022/03/27 12:55:13;;;;;;;3.88;1.42;;;12.50;59.60;;;;;;10443886;28;20365;-83
2022/03/27 13:00:14;;;;;;;4.13;1.55;;;12.90;60.60;;;;;;10424966;28;20112;-84
2022/03/27 13:05:16;;;;;;;3.13;1.17;;;12.60;52.00;;;;;;10426278;28;20033;-87
2022/03/27 13:10:16;;;;;;;3.92;1.48;;;12.60;54.90;;;;;;10420630;28;20079;-83
2022/03/27 13:15:47;;;;;;;7.20;2.10;;;12.40;54.00;;;;;;10435188;28;20038;-85
2022/03/27 13:20:48;;;;;;;4.88;1.52;;;13.00;56.40;;;;;;10428530;28;20106;-83
2022/03/27 13:25:51;;;;;;;6.28;2.67;;;12.80;52.00;;;;;;10451118;28;20550;-83
2022/03/27 13:30:52;;;;;;;26.77;11.52;;;13.20;54.50;;;;;;10424389;28;20040;-84
2022/03/27 13:35:54;;;;;;;8.48;3.13;;;13.60;54.50;;;;;;10418900;28;20369;-85
2022/03/27 13:46:14;;;;;;;271.40;176.52;;;13.90;54.20;;;;;;10440306;28;20691;-86
2022/03/27 13:51:15;;;;;;;4.47;2.45;;;13.70;51.80;;;;;;10419637;28;20044;-84
2022/03/27 13:56:16;;;;;;;7.13;2.63;;;13.40;50.10;;;;;;10426918;28;20027;-87
2022/03/27 14:01:25;;;;;;;6.03;3.50;;;13.30;50.70;;;;;;10424045;28;20057;-84
2022/03/27 14:12:33;;;;;;;9.27;5.07;;;13.60;51.90;;;;;;10413445;28;20049;-84
2022/03/27 14:17:34;;;;;;;12.25;5.07;;;13.70;52.80;;;;;;10410766;28;20460;-84
2022/03/27 14:28:38;;;;;;;11.73;4.60;;;13.40;52.50;;;;;;10476396;28;20076;-84
2022/03/27 14:33:39;;;;;;;5.75;2.40;;;13.50;52.90;;;;;;10477165;28;20601;-84
2022/03/27 14:38:41;;;;;;;12.77;5.28;;;13.50;49.80;;;;;;10494240;28;20114;-84
2022/03/27 14:43:42;;;;;;;7.35;2.70;;;13.30;51.60;;;;;;10502176;28;20020;-84
2022/03/27 14:49:08;;;;;;;8.15;2.90;;;13.00;50.50;;;;;;10512127;28;20040;-83
2022/03/27 14:59:46;;;;;;;7.25;2.85;;;12.90;51.70;;;;;;10499736;28;20032;-83
2022/03/27 15:04:50;;;;;;;6.38;2.95;;;12.70;51.70;;;;;;10486094;28;20024;-85
2022/03/27 15:09:50;;;;;;;6.63;3.05;;;12.50;50.20;;;;;;10512734;28;20438;-83
2022/03/27 15:14:54;;;;;;;17.25;7.68;;;12.30;49.10;;;;;;10516512;28;20096;-84
2022/03/27 15:19:55;;;;;;;7.78;3.90;;;12.20;51.40;;;;;;10483481;28;20066;-85
2022/03/27 15:24:56;;;;;;;16.23;6.75;;;12.30;52.00;;;;;;10515575;28;20891;-88
2022/03/27 15:29:56;;;;;;;8.68;4.82;;;12.30;52.20;;;;;;10519628;28;20130;-85
2022/03/27 15:34:59;;;;;;;14.90;6.88;;;12.20;51.90;;;;;;10503596;28;20051;-86
2022/03/27 15:40:00;;;;;;;21.05;15.65;;;12.20;52.40;;;;;;10485888;28;20024;-84
2022/03/27 15:45:03;;;;;;;13.93;7.82;;;12.20;52.90;;;;;;10510165;28;20025;-85
2022/03/27 15:50:05;;;;;;;13.30;6.20;;;12.20;52.70;;;;;;10528241;28;20043;-83
2022/03/27 15:55:09;;;;;;;9.35;4.25;;;12.10;51.30;;;;;;10526163;28;20107;-85
2022/03/27 16:00:11;;;;;;;16.42;6.80;;;11.90;50.60;;;;;;10508210;28;20126;-84
2022/03/27 16:05:11;;;;;;;34.72;22.10;;;11.70;51.30;;;;;;10493187;28;20431;-87
2022/03/27 16:10:13;;;;;;;15.45;10.25;;;11.60;52.80;;;;;;10518347;28;20040;-83
2022/03/27 16:15:13;;;;;;;13.85;8.25;;;11.60;52.70;;;;;;10512292;28;20047;-83
2022/03/27 16:20:14;;;;;;;9.57;4.05;;;11.70;52.80;;;;;;10497484;28;20037;-86
2022/03/27 16:25:15;;;;;;;13.27;6.65;;;11.60;53.00;;;;;;10507736;28;20432;-82
2022/03/27 16:30:15;;;;;;;16.70;9.02;;;11.60;53.50;;;;;;10521113;28;20070;-87
2022/03/27 16:35:16;;;;;;;11.40;5.35;;;11.50;53.10;;;;;;10497026;28;20025;-84
2022/03/27 16:40:17;;;;;;;10.73;4.38;;;11.40;54.00;;;;;;10500604;28;20042;-84
2022/03/27 16:45:18;;;;;;;13.07;5.65;;;11.20;54.30;;;;;;10522417;28;20024;-84
2022/03/27 16:50:19;;;;;;;16.95;6.97;;;10.90;54.80;;;;;;10505457;28;20081;-83
2022/03/27 16:55:20;;;;;;;17.00;7.23;;;10.50;54.70;;;;;;10516098;28;20024;-87
2022/03/27 17:00:21;;;;;;;21.23;8.93;;;10.20;55.70;;;;;;10504167;28;20090;-84
2022/03/27 17:05:22;;;;;;;17.23;7.00;;;9.90;56.00;;;;;;10504320;28;20082;-86
2022/03/27 17:10:23;;;;;;;13.43;6.03;;;9.50;56.10;;;;;;10494235;28;20044;-84
2022/03/27 17:15:25;;;;;;;8.30;4.80;;;9.10;56.30;;;;;;10492924;28;20036;-86
2022/03/27 17:20:25;;;;;;;11.00;4.50;;;8.80;56.40;;;;;;10498109;28;20032;-87
2022/03/27 17:25:27;;;;;;;11.10;4.37;;;8.50;56.60;;;;;;10517707;28;20061;-88
2022/03/27 17:30:28;;;;;;;7.93;3.50;;;8.20;57.10;;;;;;10507064;28;20518;-83
2022/03/27 17:35:29;;;;;;;7.70;3.13;;;8.00;57.30;;;;;;10512869;28;20156;-83
2022/03/27 17:40:31;;;;;;;9.27;3.57;;;7.90;57.60;;;;;;10511398;28;20035;-86
2022/03/27 17:45:34;;;;;;;11.03;3.53;;;7.70;57.80;;;;;;10508372;28;20106;-83
2022/03/27 17:50:34;;;;;;;6.47;3.33;;;7.60;57.90;;;;;;10505273;28;20131;-83
2022/03/27 17:55:35;;;;;;;7.90;3.40;;;7.50;58.40;;;;;;10503825;28;20034;-81
2022/03/27 18:00:36;;;;;;;8.47;3.33;;;7.40;58.60;;;;;;10512214;28;20485;-87
2022/03/27 18:05:38;;;;;;;6.53;3.63;;;7.20;59.20;;;;;;10523086;28;20032;-83
2022/03/27 18:10:39;;;;;;;13.43;5.60;;;7.00;58.90;;;;;;10524819;28;20474;-84
2022/03/27 18:15:40;;;;;;;15.70;7.80;;;6.90;59.30;;;;;;10510979;28;20047;-84
2022/03/27 18:20:40;;;;;;;7.57;4.10;;;6.80;59.40;;;;;;10525977;28;20035;-86
2022/03/27 18:25:41;;;;;;;9.53;4.30;;;6.60;59.70;;;;;;10531961;28;20056;-82
2022/03/27 18:30:42;;;;;;;14.13;7.47;;;6.60;60.10;;;;;;10483027;28;20047;-85
2022/03/27 18:35:43;;;;;;;15.30;7.87;;;6.60;61.30;;;;;;10510526;28;20040;-84
2022/03/27 18:40:43;;;;;;;36.20;17.23;;;6.50;60.80;;;;;;10498708;28;20035;-84
2022/03/27 18:45:44;;;;;;;154.37;69.17;;;6.30;60.60;;;;;;10504889;28;20399;-84
2022/03/27 18:50:45;;;;;;;127.10;48.77;;;6.20;60.60;;;;;;10498651;28;20273;-82
2022/03/27 18:55:46;;;;;;;169.20;68.77;;;6.10;62.90;;;;;;10502201;28;20107;-81
2022/03/27 19:00:48;;;;;;;171.20;69.10;;;5.80;63.50;;;;;;10491519;28;20051;-83
2022/03/27 19:05:50;;;;;;;160.57;61.40;;;5.50;63.90;;;;;;10491199;28;20475;-82
2022/03/27 19:10:52;;;;;;;118.10;48.03;;;5.30;63.90;;;;;;10490884;28;20082;-82
2022/03/27 19:15:52;;;;;;;108.30;42.00;;;5.20;63.80;;;;;;10520044;28;20024;-82
2022/03/27 19:21:17;;;;;;;100.50;40.07;;;5.30;63.60;;;;;;10496628;28;20460;-82
2022/03/27 19:26:19;;;;;;;101.40;37.33;;;5.30;64.80;;;;;;10490054;28;20570;-84
2022/03/27 19:31:20;;;;;;;148.87;65.10;;;5.10;64.40;;;;;;10497282;28;20062;-87
2022/03/27 19:36:22;;;;;;;90.27;40.90;;;5.00;64.20;;;;;;10516267;28;20498;-85
2022/03/27 19:41:24;;;;;;;90.93;39.90;;;5.00;64.00;;;;;;10507592;28;20397;-83
2022/03/27 19:46:25;;;;;;;102.00;44.23;;;5.00;63.90;;;;;;10491658;28;20414;-84
2022/03/27 19:51:26;;;;;;;128.40;54.97;;;5.10;63.90;;;;;;10516727;28;20040;-83
2022/03/27 19:56:26;;;;;;;151.37;64.83;;;5.10;64.10;;;;;;10517596;28;20032;-86
2022/03/27 20:01:27;;;;;;;183.60;78.87;;;5.00;64.90;;;;;;10533906;28;20028;-84
2022/03/27 20:06:27;;;;;;;181.43;77.40;;;4.90;64.50;;;;;;10537749;28;20104;-84
2022/03/27 20:11:28;;;;;;;139.90;58.90;;;4.70;64.90;;;;;;10537720;28;20047;-85
2022/03/27 20:16:29;;;;;;;110.00;45.83;;;4.70;65.30;;;;;;10513480;28;20052;-84
2022/03/27 20:21:29;;;;;;;103.07;41.53;;;4.60;65.40;;;;;;10503123;28;20032;-83
2022/03/27 20:26:30;;;;;;;93.07;37.00;;;4.60;65.40;;;;;;10495011;28;20408;-84
2022/03/27 20:31:31;;;;;;;101.23;41.00;;;4.60;65.50;;;;;;10517468;28;20040;-84
2022/03/27 20:36:32;;;;;;;117.50;48.17;;;4.60;65.50;;;;;;10501655;28;20029;-84
2022/03/27 20:41:33;;;;;;;96.40;41.57;;;4.50;65.70;;;;;;10518385;28;20558;-88
2022/03/27 20:46:33;;;;;;;86.87;36.93;;;4.50;65.90;;;;;;10535796;28;20036;-84
2022/03/27 20:51:35;;;;;;;88.43;36.83;;;4.40;66.10;;;;;;10514692;28;20377;-85
2022/03/27 20:56:36;;;;;;;71.73;31.37;;;4.40;66.10;;;;;;10521273;28;20073;-84
2022/03/27 21:01:37;;;;;;;78.00;34.03;;;4.40;66.20;;;;;;10512907;28;20505;-84
2022/03/27 21:06:37;;;;;;;75.67;35.17;;;4.40;66.20;;;;;;10524315;28;20116;-84
2022/03/27 21:11:38;;;;;;;126.40;59.73;;;4.40;66.30;;;;;;10477608;28;20036;-84
2022/03/27 21:16:39;;;;;;;125.10;60.33;;;4.30;66.10;;;;;;10501849;28;20101;-82
2022/03/27 21:21:39;;;;;;;133.40;59.63;;;4.30;66.30;;;;;;10528419;28;20032;-86
2022/03/27 21:26:40;;;;;;;83.50;38.30;;;4.20;66.50;;;;;;10512474;28;20479;-81
2022/03/27 21:31:41;;;;;;;79.30;35.30;;;4.30;66.60;;;;;;10453909;23;20118;-83
2022/03/27 21:36:41;;;;;;;82.30;37.33;;;4.20;66.90;;;;;;10412749;28;20032;-84
2022/03/27 21:41:42;;;;;;;105.57;47.67;;;4.10;67.00;;;;;;10451558;28;20083;-87
2022/03/27 21:46:43;;;;;;;128.03;52.97;;;4.00;67.00;;;;;;10439898;28;20838;-83
2022/03/27 21:51:44;;;;;;;127.57;54.60;;;4.00;66.90;;;;;;10434063;28;20049;-85
2022/03/27 21:56:44;;;;;;;144.47;58.07;;;4.00;66.90;;;;;;10450402;28;20029;-84
2022/03/27 22:01:45;;;;;;;127.70;53.83;;;4.00;67.10;;;;;;10440638;28;20598;-83
2022/03/27 22:06:46;;;;;;;116.80;49.87;;;4.00;67.10;;;;;;10433739;28;20051;-83
2022/03/27 22:11:46;;;;;;;101.47;44.03;;;3.90;67.20;;;;;;10444293;28;20041;-83
2022/03/27 22:16:47;;;;;;;89.73;41.30;;;3.90;67.00;;;;;;10449228;28;20032;-83
2022/03/27 22:21:48;;;;;;;90.23;42.10;;;3.90;67.20;;;;;;10450898;28;20033;-82
2022/03/27 22:26:49;;;;;;;89.43;39.67;;;3.90;67.40;;;;;;10450266;28;20094;-83
2022/03/27 22:31:49;;;;;;;87.90;39.13;;;3.90;67.40;;;;;;10437450;28;20074;-84
2022/03/27 22:36:50;;;;;;;91.10;39.87;;;3.90;68.80;;;;;;10450725;28;20485;-85
2022/03/27 22:41:51;;;;;;;89.10;40.57;;;3.70;68.40;;;;;;10432811;28;20028;-85
2022/03/27 22:46:51;;;;;;;99.57;43.80;;;3.60;68.10;;;;;;10435216;28;20397;-83
2022/03/27 22:51:53;;;;;;;99.57;44.03;;;3.60;68.30;;;;;;10409154;28;20037;-84
2022/03/27 22:56:53;;;;;;;88.17;40.27;;;3.50;69.40;;;;;;10433746;28;20037;-83
2022/03/27 23:01:54;;;;;;;96.43;42.97;;;3.30;69.80;;;;;;10447719;28;20372;-83
2022/03/27 23:06:56;;;;;;;100.53;45.43;;;3.20;69.50;;;;;;10425578;28;20516;-87
2022/03/27 23:11:56;;;;;;;118.10;53.17;;;3.10;69.90;;;;;;10433590;28;20037;-86
2022/03/27 23:16:57;;;;;;;132.73;54.23;;;2.90;70.00;;;;;;10448062;28;20519;-83
2022/03/27 23:21:58;;;;;;;121.40;53.80;;;2.90;71.50;;;;;;10440321;28;20476;-85
2022/03/27 23:26:59;;;;;;;149.93;61.77;;;2.80;71.60;;;;;;10412662;28;20065;-83
2022/03/27 23:32:00;;;;;;;130.73;56.60;;;2.60;72.20;;;;;;10420186;28;20121;-83
2022/03/27 23:37:02;;;;;;;127.37;54.33;;;2.70;72.80;;;;;;10416658;28;20125;-83
2022/03/27 23:42:03;;;;;;;101.97;43.20;;;2.50;73.90;;;;;;10428428;28;20036;-86
2022/03/27 23:47:03;;;;;;;113.33;48.10;;;2.50;73.60;;;;;;10428353;28;20017;-85
2022/03/27 23:52:06;;;;;;;115.03;45.97;;;2.50;74.50;;;;;;10439693;28;20385;-83
2022/03/27 23:57:07;;;;;;;106.43;44.63;;;2.40;75.70;;;;;;10415625;28;20075;-86
